sensor_id;sensor_type;location;lat;lon;timestamp;pressure;altitude;pressure_sealevel;temperature;humidity
15674;BME280;7937;48.090;16.212;2023-04-25T00:00:53;97017.72;;;8.57;71.79
15674;BME280;7937;48.090;16.212;2023-04-25T00:03:55;97026.22;;;8.53;72.71
15674;BME280;7937;48.090;16.212;2023-04-25T00:06:59;97018.16;;;8.48;72.70
15674;BME280;7937;48.090;16.212;2023-04-25T00:10:03;97016.72;;;8.58;71.92
15674;BME280;7937;48.090;16.212;2023-04-25T00:13:05;97014.53;;;8.55;69.00
15674;BME280;7937;48.090;16.212;2023-04-25T00:16:08;97025.47;;;8.58;68.84
15674;BME280;7937;48.090;16.212;2023-04-25T00:19:10;97023.69;;;8.64;66.86
15674;BME280;7937;48.090;16.212;2023-04-25T00:22:12;97019.00;;;8.71;68.78
15674;BME280;7937;48.090;16.212;2023-04-25T00:25:15;97019.00;;;8.71;67.71
15674;BME280;7937;48.090;16.212;2023-04-25T00:28:17;97018.03;;;8.77;69.15
15674;BME280;7937;48.090;16.212;2023-04-25T00:31:19;97033.56;;;8.68;69.29
15674;BME280;7937;48.090;16.212;2023-04-25T00:34:21;97013.44;;;8.72;66.11
15674;BME280;7937;48.090;16.212;2023-04-25T00:37:23;97015.19;;;8.84;66.60
15674;BME280;7937;48.090;16.212;2023-04-25T00:40:26;97016.47;;;8.81;65.54
15674;BME280;7937;48.090;16.212;2023-04-25T00:43:30;97020.97;;;8.81;66.48
15674;BME280;7937;48.090;16.212;2023-04-25T00:46:35;97020.91;;;8.75;69.02
15674;BME280;7937;48.090;16.212;2023-04-25T00:49:38;97015.59;;;8.53;69.66
15674;BME280;7937;48.090;16.212;2023-04-25T00:52:47;97004.59;;;8.67;65.73
15674;BME280;7937;48.090;16.212;2023-04-25T00:55:49;97012.28;;;8.63;67.18
15674;BME280;7937;48.090;16.212;2023-04-25T00:58:55;97011.06;;;8.54;68.22
15674;BME280;7937;48.090;16.212;2023-04-25T01:02:04;97013.00;;;8.59;67.52
15674;BME280;7937;48.090;16.212;2023-04-25T01:05:07;97004.84;;;8.43;69.59
15674;BME280;7937;48.090;16.212;2023-04-25T01:08:10;97003.84;;;8.33;71.56
15674;BME280;7937;48.090;16.212;2023-04-25T01:11:13;97005.94;;;8.31;70.31
15674;BME280;7937;48.090;16.212;2023-04-25T01:14:16;97006.75;;;8.31;69.73
15674;BME280;7937;48.090;16.212;2023-04-25T01:17:18;96996.94;;;8.48;65.41
15674;BME280;7937;48.090;16.212;2023-04-25T01:20:22;97000.72;;;8.52;66.75
15674;BME280;7937;48.090;16.212;2023-04-25T01:23:31;96994.75;;;8.45;69.83
15674;BME280;7937;48.090;16.212;2023-04-25T01:26:35;96993.25;;;8.33;72.16
15674;BME280;7937;48.090;16.212;2023-04-25T01:29:38;97000.56;;;8.25;71.66
15674;BME280;7937;48.090;16.212;2023-04-25T01:32:42;96995.81;;;8.11;73.06
15674;BME280;7937;48.090;16.212;2023-04-25T01:35:44;96997.66;;;8.27;69.17
15674;BME280;7937;48.090;16.212;2023-04-25T01:38:47;96994.19;;;8.26;70.94
15674;BME280;7937;48.090;16.212;2023-04-25T01:41:49;96996.47;;;8.18;71.28
15674;BME280;7937;48.090;16.212;2023-04-25T01:44:51;96997.44;;;8.28;66.96
15674;BME280;7937;48.090;16.212;2023-04-25T01:47:54;96996.47;;;8.73;65.17
15674;BME280;7937;48.090;16.212;2023-04-25T01:50:56;96999.22;;;8.62;65.11
15674;BME280;7937;48.090;16.212;2023-04-25T01:54:00;96992.09;;;8.45;68.38
15674;BME280;7937;48.090;16.212;2023-04-25T01:57:06;96994.53;;;8.30;70.56
15674;BME280;7937;48.090;16.212;2023-04-25T02:00:11;97001.28;;;8.21;66.98
15674;BME280;7937;48.090;16.212;2023-04-25T02:03:13;96997.94;;;8.09;70.33
15674;BME280;7937;48.090;16.212;2023-04-25T02:06:16;96990.78;;;8.09;70.52
15674;BME280;7937;48.090;16.212;2023-04-25T02:09:20;96993.25;;;8.16;67.53
15674;BME280;7937;48.090;16.212;2023-04-25T02:12:27;96987.78;;;8.06;69.32
15674;BME280;7937;48.090;16.212;2023-04-25T02:15:48;96999.38;;;7.99;70.43
15674;BME280;7937;48.090;16.212;2023-04-25T02:18:53;96999.84;;;7.80;72.06
15674;BME280;7937;48.090;16.212;2023-04-25T02:21:55;96992.75;;;7.68;73.18
15674;BME280;7937;48.090;16.212;2023-04-25T02:24:59;96991.97;;;7.68;70.84
15674;BME280;7937;48.090;16.212;2023-04-25T02:28:01;96999.94;;;7.85;68.02
15674;BME280;7937;48.090;16.212;2023-04-25T02:31:04;97002.50;;;7.96;67.46
15674;BME280;7937;48.090;16.212;2023-04-25T02:34:07;96994.63;;;8.01;67.07
15674;BME280;7937;48.090;16.212;2023-04-25T02:37:12;96982.25;;;7.90;68.78
15674;BME280;7937;48.090;16.212;2023-04-25T02:40:14;96987.78;;;7.72;71.60
15674;BME280;7937;48.090;16.212;2023-04-25T02:43:17;96988.59;;;7.56;71.20
15674;BME280;7937;48.090;16.212;2023-04-25T02:46:20;96986.31;;;7.47;72.71
15674;BME280;7937;48.090;16.212;2023-04-25T02:49:39;96982.41;;;7.50;72.02
15674;BME280;7937;48.090;16.212;2023-04-25T02:52:42;96970.19;;;7.49;72.53
15674;BME280;7937;48.090;16.212;2023-04-25T02:55:49;96966.41;;;7.62;69.23
15674;BME280;7937;48.090;16.212;2023-04-25T02:58:52;96970.63;;;7.74;68.14
15674;BME280;7937;48.090;16.212;2023-04-25T03:01:54;96962.66;;;7.74;70.66
15674;BME280;7937;48.090;16.212;2023-04-25T03:04:58;96961.19;;;7.67;69.71
15674;BME280;7937;48.090;16.212;2023-04-25T03:08:02;96966.59;;;7.55;70.27
15674;BME280;7937;48.090;16.212;2023-04-25T03:11:06;96947.06;;;7.44;71.69
15674;BME280;7937;48.090;16.212;2023-04-25T03:14:09;96971.22;;;7.48;69.53
15674;BME280;7937;48.090;16.212;2023-04-25T03:17:11;96961.41;;;7.48;68.85
15674;BME280;7937;48.090;16.212;2023-04-25T03:20:14;96951.66;;;7.49;68.36
15674;BME280;7937;48.090;16.212;2023-04-25T03:23:16;96959.50;;;7.44;70.06
15674;BME280;7937;48.090;16.212;2023-04-25T03:26:20;96958.28;;;7.35;70.61
15674;BME280;7937;48.090;16.212;2023-04-25T03:29:22;96965.53;;;7.39;69.09
15674;BME280;7937;48.090;16.212;2023-04-25T03:32:29;96969.09;;;7.33;69.21
15674;BME280;7937;48.090;16.212;2023-04-25T03:35:32;96970.66;;;7.29;70.19
15674;BME280;7937;48.090;16.212;2023-04-25T03:38:35;96973.09;;;7.19;72.98
15674;BME280;7937;48.090;16.212;2023-04-25T03:41:39;96983.19;;;7.05;73.19
15674;BME280;7937;48.090;16.212;2023-04-25T03:44:46;96981.59;;;6.92;73.14
15674;BME280;7937;48.090;16.212;2023-04-25T03:47:49;96985.31;;;6.91;72.98
15674;BME280;7937;48.090;16.212;2023-04-25T03:50:52;96985.66;;;6.83;72.45
15674;BME280;7937;48.090;16.212;2023-04-25T03:53:54;96990.16;;;6.83;73.62
15674;BME280;7937;48.090;16.212;2023-04-25T03:57:05;96988.09;;;6.73;74.00
15674;BME280;7937;48.090;16.212;2023-04-25T04:00:12;96994.34;;;6.67;74.02
15674;BME280;7937;48.090;16.212;2023-04-25T04:03:14;97000.78;;;6.59;74.31
15674;BME280;7937;48.090;16.212;2023-04-25T04:06:17;97001.84;;;6.46;75.29
15674;BME280;7937;48.090;16.212;2023-04-25T04:09:24;97009.69;;;6.41;75.95
15674;BME280;7937;48.090;16.212;2023-04-25T04:12:28;97003.03;;;6.27;75.83
15674;BME280;7937;48.090;16.212;2023-04-25T04:15:30;97007.03;;;6.18;77.00
15674;BME280;7937;48.090;16.212;2023-04-25T04:18:35;97006.56;;;6.09;77.20
15674;BME280;7937;48.090;16.212;2023-04-25T04:21:38;97010.38;;;6.02;76.86
15674;BME280;7937;48.090;16.212;2023-04-25T04:24:41;97007.38;;;5.98;77.64
15674;BME280;7937;48.090;16.212;2023-04-25T04:27:48;97009.66;;;5.94;77.20
15674;BME280;7937;48.090;16.212;2023-04-25T04:31:00;97009.28;;;5.91;77.41
15674;BME280;7937;48.090;16.212;2023-04-25T04:34:03;96997.22;;;5.83;77.43
15674;BME280;7937;48.090;16.212;2023-04-25T04:37:07;97006.88;;;5.78;77.93
15674;BME280;7937;48.090;16.212;2023-04-25T04:40:10;97009.72;;;5.76;78.79
15674;BME280;7937;48.090;16.212;2023-04-25T04:43:20;97006.50;;;5.62;79.21
15674;BME280;7937;48.090;16.212;2023-04-25T04:46:42;97016.34;;;5.55;79.79
15674;BME280;7937;48.090;16.212;2023-04-25T04:50:03;96986.28;;;5.26;79.97
15674;BME280;7937;48.090;16.212;2023-04-25T04:53:16;97013.09;;;5.41;80.14
15674;BME280;7937;48.090;16.212;2023-04-25T04:56:18;97014.25;;;5.46;80.31
15674;BME280;7937;48.090;16.212;2023-04-25T04:59:29;97010.06;;;5.68;78.70
15674;BME280;7937;48.090;16.212;2023-04-25T05:03:01;97016.28;;;5.74;78.59
15674;BME280;7937;48.090;16.212;2023-04-25T05:06:16;97009.09;;;5.92;76.84
15674;BME280;7937;48.090;16.212;2023-04-25T05:09:27;97019.56;;;5.99;77.32
15674;BME280;7937;48.090;16.212;2023-04-25T05:12:43;97004.00;;;5.91;76.84
15674;BME280;7937;48.090;16.212;2023-04-25T05:15:55;97014.03;;;6.01;77.03
15674;BME280;7937;48.090;16.212;2023-04-25T05:19:22;97011.75;;;6.39;74.96
15674;BME280;7937;48.090;16.212;2023-04-25T05:22:44;97015.44;;;6.38;75.48
15674;BME280;7937;48.090;16.212;2023-04-25T05:26:18;97003.44;;;6.59;74.45
15674;BME280;7937;48.090;16.212;2023-04-25T05:29:41;97009.38;;;6.78;73.54
15674;BME280;7937;48.090;16.212;2023-04-25T05:33:08;96997.41;;;7.16;69.74
15674;BME280;7937;48.090;16.212;2023-04-25T05:36:11;97003.09;;;7.08;71.57
15674;BME280;7937;48.090;16.212;2023-04-25T05:39:16;97003.13;;;6.96;74.28
15674;BME280;7937;48.090;16.212;2023-04-25T05:42:44;96996.34;;;6.88;73.95
15674;BME280;7937;48.090;16.212;2023-04-25T05:46:07;96987.88;;;6.75;74.90
15674;BME280;7937;48.090;16.212;2023-04-25T05:49:25;96992.59;;;6.72;75.52
15674;BME280;7937;48.090;16.212;2023-04-25T05:52:54;96990.41;;;6.81;75.06
15674;BME280;7937;48.090;16.212;2023-04-25T05:56:04;96978.69;;;7.06;72.31
15674;BME280;7937;48.090;16.212;2023-04-25T05:59:06;96989.47;;;7.44;69.30
15674;BME280;7937;48.090;16.212;2023-04-25T06:02:08;96988.75;;;7.66;68.14
15674;BME280;7937;48.090;16.212;2023-04-25T06:05:12;96990.75;;;7.92;66.83
15674;BME280;7937;48.090;16.212;2023-04-25T06:08:15;96983.91;;;8.30;65.28
15674;BME280;7937;48.090;16.212;2023-04-25T06:11:18;96988.66;;;8.28;65.01
15674;BME280;7937;48.090;16.212;2023-04-25T06:14:21;96980.03;;;8.76;61.59
15674;BME280;7937;48.090;16.212;2023-04-25T06:17:25;96977.97;;;8.62;64.29
15674;BME280;7937;48.090;16.212;2023-04-25T06:20:28;96974.97;;;8.97;61.60
15674;BME280;7937;48.090;16.212;2023-04-25T06:23:32;96970.41;;;8.92;63.04
15674;BME280;7937;48.090;16.212;2023-04-25T06:26:41;96976.06;;;9.01;62.34
15674;BME280;7937;48.090;16.212;2023-04-25T06:29:44;96962.06;;;9.33;58.50
15674;BME280;7937;48.090;16.212;2023-04-25T06:32:48;96969.47;;;9.30;60.76
15674;BME280;7937;48.090;16.212;2023-04-25T06:35:50;96978.19;;;9.26;59.94
15674;BME280;7937;48.090;16.212;2023-04-25T06:38:58;96973.28;;;9.67;57.55
15674;BME280;7937;48.090;16.212;2023-04-25T06:42:00;96983.34;;;9.65;57.71
15674;BME280;7937;48.090;16.212;2023-04-25T06:45:33;96980.84;;;9.85;58.42
15674;BME280;7937;48.090;16.212;2023-04-25T06:48:36;96979.47;;;10.15;56.52
15674;BME280;7937;48.090;16.212;2023-04-25T06:51:40;96972.88;;;10.22;55.83
15674;BME280;7937;48.090;16.212;2023-04-25T06:54:43;96971.59;;;10.25;56.62
15674;BME280;7937;48.090;16.212;2023-04-25T06:57:57;96975.97;;;10.41;55.88
15674;BME280;7937;48.090;16.212;2023-04-25T07:01:26;96961.69;;;10.63;54.04
15674;BME280;7937;48.090;16.212;2023-04-25T07:04:29;96957.44;;;10.67;56.27
15674;BME280;7937;48.090;16.212;2023-04-25T07:07:33;96963.69;;;10.98;53.35
15674;BME280;7937;48.090;16.212;2023-04-25T07:10:36;96952.00;;;11.04;53.03
15674;BME280;7937;48.090;16.212;2023-04-25T07:13:39;96963.50;;;11.25;52.37
15674;BME280;7937;48.090;16.212;2023-04-25T07:16:41;96944.06;;;11.50;51.53
15674;BME280;7937;48.090;16.212;2023-04-25T07:19:44;96954.72;;;11.45;52.59
15674;BME280;7937;48.090;16.212;2023-04-25T07:22:47;96942.97;;;11.35;51.46
15674;BME280;7937;48.090;16.212;2023-04-25T07:25:49;96956.84;;;11.37;51.91
15674;BME280;7937;48.090;16.212;2023-04-25T07:28:55;96951.78;;;11.36;51.30
15674;BME280;7937;48.090;16.212;2023-04-25T07:31:59;96953.63;;;11.30;51.70
15674;BME280;7937;48.090;16.212;2023-04-25T07:35:01;96943.78;;;11.46;52.94
15674;BME280;7937;48.090;16.212;2023-04-25T07:38:05;96954.16;;;11.37;55.12
15674;BME280;7937;48.090;16.212;2023-04-25T07:41:09;96954.19;;;11.43;52.11
15674;BME280;7937;48.090;16.212;2023-04-25T07:44:11;96954.41;;;11.16;53.42
15674;BME280;7937;48.090;16.212;2023-04-25T07:47:14;96954.63;;;10.94;55.03
15674;BME280;7937;48.090;16.212;2023-04-25T07:50:17;96949.56;;;11.02;53.96
15674;BME280;7937;48.090;16.212;2023-04-25T07:53:21;96941.88;;;11.11;52.74
15674;BME280;7937;48.090;16.212;2023-04-25T07:56:28;96948.25;;;11.05;53.92
15674;BME280;7937;48.090;16.212;2023-04-25T07:59:46;96945.00;;;10.93;53.40
15674;BME280;7937;48.090;16.212;2023-04-25T08:02:49;96940.44;;;10.78;54.89
15674;BME280;7937;48.090;16.212;2023-04-25T08:05:54;96933.03;;;10.90;54.81
15674;BME280;7937;48.090;16.212;2023-04-25T08:08:59;96933.13;;;11.36;54.97
15674;BME280;7937;48.090;16.212;2023-04-25T08:12:08;96929.13;;;11.44;53.52
15674;BME280;7937;48.090;16.212;2023-04-25T08:15:11;96922.47;;;11.72;54.16
15674;BME280;7937;48.090;16.212;2023-04-25T08:18:17;96920.06;;;11.80;51.80
15674;BME280;7937;48.090;16.212;2023-04-25T08:21:22;96922.50;;;11.97;51.58
15674;BME280;7937;48.090;16.212;2023-04-25T08:24:26;96916.09;;;11.93;50.33
15674;BME280;7937;48.090;16.212;2023-04-25T08:27:29;96891.25;;;11.52;51.81
15674;BME280;7937;48.090;16.212;2023-04-25T08:30:33;96912.34;;;11.63;51.25
15674;BME280;7937;48.090;16.212;2023-04-25T08:33:36;96914.44;;;11.41;53.39
15674;BME280;7937;48.090;16.212;2023-04-25T08:36:55;96920.34;;;11.79;53.55
15674;BME280;7937;48.090;16.212;2023-04-25T08:40:19;96921.94;;;11.95;49.51
15674;BME280;7937;48.090;16.212;2023-04-25T08:43:34;96917.69;;;11.84;54.97
15674;BME280;7937;48.090;16.212;2023-04-25T08:46:40;96898.47;;;11.92;52.48
15674;BME280;7937;48.090;16.212;2023-04-25T08:49:53;96913.31;;;12.39;52.00
15674;BME280;7937;48.090;16.212;2023-04-25T08:52:58;96902.91;;;12.37;51.86
15674;BME280;7937;48.090;16.212;2023-04-25T08:56:06;96910.78;;;12.73;49.83
15674;BME280;7937;48.090;16.212;2023-04-25T08:59:12;96903.50;;;12.84;50.40
15674;BME280;7937;48.090;16.212;2023-04-25T09:02:16;96902.97;;;12.87;48.92
15674;BME280;7937;48.090;16.212;2023-04-25T09:05:24;96922.81;;;12.65;49.32
15674;BME280;7937;48.090;16.212;2023-04-25T09:08:27;96924.03;;;12.24;50.55
15674;BME280;7937;48.090;16.212;2023-04-25T09:11:30;96924.06;;;12.13;52.80
15674;BME280;7937;48.090;16.212;2023-04-25T09:14:36;96933.41;;;11.91;49.26
15674;BME280;7937;48.090;16.212;2023-04-25T09:17:43;96930.47;;;11.51;47.40
15674;BME280;7937;48.090;16.212;2023-04-25T09:20:47;96923.00;;;11.48;46.97
15674;BME280;7937;48.090;16.212;2023-04-25T09:24:01;96928.34;;;11.58;47.30
15674;BME280;7937;48.090;16.212;2023-04-25T09:27:06;96921.94;;;11.54;49.27
15674;BME280;7937;48.090;16.212;2023-04-25T09:30:10;96932.59;;;11.59;48.77
15674;BME280;7937;48.090;16.212;2023-04-25T09:33:45;96928.88;;;11.71;49.58
15674;BME280;7937;48.090;16.212;2023-04-25T09:36:48;96932.63;;;11.90;49.74
15674;BME280;7937;48.090;16.212;2023-04-25T09:40:06;96938.47;;;11.87;50.52
15674;BME280;7937;48.090;16.212;2023-04-25T09:43:25;96929.44;;;11.88;49.12
15674;BME280;7937;48.090;16.212;2023-04-25T09:46:33;96931.00;;;11.79;49.97
15674;BME280;7937;48.090;16.212;2023-04-25T09:49:43;96927.00;;;11.76;50.57
15674;BME280;7937;48.090;16.212;2023-04-25T09:53:02;96927.00;;;11.71;51.25
15674;BME280;7937;48.090;16.212;2023-04-25T09:56:13;96924.34;;;11.92;50.91
15674;BME280;7937;48.090;16.212;2023-04-25T09:59:16;96914.91;;;12.40;50.28
15674;BME280;7937;48.090;16.212;2023-04-25T10:02:21;96906.81;;;12.60;46.93
15674;BME280;7937;48.090;16.212;2023-04-25T10:05:29;96923.72;;;12.35;50.64
15674;BME280;7937;48.090;16.212;2023-04-25T10:08:36;96934.22;;;11.96;52.66
15674;BME280;7937;48.090;16.212;2023-04-25T10:11:39;96928.06;;;11.60;55.22
15674;BME280;7937;48.090;16.212;2023-04-25T10:14:42;96952.00;;;11.14;58.12
15674;BME280;7937;48.090;16.212;2023-04-25T10:17:45;96937.81;;;10.93;57.02
15674;BME280;7937;48.090;16.212;2023-04-25T10:20:48;96946.81;;;10.77;58.27
15674;BME280;7937;48.090;16.212;2023-04-25T10:23:54;96942.38;;;10.35;60.36
15674;BME280;7937;48.090;16.212;2023-04-25T10:26:58;96919.22;;;9.98;61.39
15674;BME280;7937;48.090;16.212;2023-04-25T10:30:15;96914.53;;;9.73;61.78
15674;BME280;7937;48.090;16.212;2023-04-25T10:33:18;96936.97;;;9.88;61.91
15674;BME280;7937;48.090;16.212;2023-04-25T10:36:31;96925.38;;;10.04;63.26
15674;BME280;7937;48.090;16.212;2023-04-25T10:39:34;96919.03;;;10.52;61.93
15674;BME280;7937;48.090;16.212;2023-04-25T10:42:37;96921.59;;;11.05;60.25
15674;BME280;7937;48.090;16.212;2023-04-25T10:45:52;96902.75;;;11.62;59.42
15674;BME280;7937;48.090;16.212;2023-04-25T10:48:56;96891.47;;;12.22;56.10
15674;BME280;7937;48.090;16.212;2023-04-25T10:52:27;96879.09;;;12.51;53.57
15674;BME280;7937;48.090;16.212;2023-04-25T10:55:49;96879.47;;;12.79;51.25
15674;BME280;7937;48.090;16.212;2023-04-25T10:59:19;96847.63;;;12.87;50.20
15674;BME280;7937;48.090;16.212;2023-04-25T11:02:26;96862.47;;;13.48;48.83
15674;BME280;7937;48.090;16.212;2023-04-25T11:05:35;96851.34;;;13.36;46.68
15674;BME280;7937;48.090;16.212;2023-04-25T11:09:00;96853.13;;;13.06;49.50
15674;BME280;7937;48.090;16.212;2023-04-25T11:12:04;96850.97;;;13.08;48.54
15674;BME280;7937;48.090;16.212;2023-04-25T11:15:07;96853.16;;;13.01;49.02
15674;BME280;7937;48.090;16.212;2023-04-25T11:18:10;96854.28;;;12.90;49.12
15674;BME280;7937;48.090;16.212;2023-04-25T11:21:13;96857.56;;;12.82;50.16
15674;BME280;7937;48.090;16.212;2023-04-25T11:24:16;96870.56;;;12.94;48.37
15674;BME280;7937;48.090;16.212;2023-04-25T11:27:20;96885.94;;;12.73;52.00
15674;BME280;7937;48.090;16.212;2023-04-25T11:30:25;96907.88;;;12.64;53.17
15674;BME280;7937;48.090;16.212;2023-04-25T11:33:28;96918.13;;;12.42;54.90
15674;BME280;7937;48.090;16.212;2023-04-25T11:36:30;96922.22;;;12.04;57.28
15674;BME280;7937;48.090;16.212;2023-04-25T11:39:33;96921.66;;;11.66;58.37
15674;BME280;7937;48.090;16.212;2023-04-25T11:42:38;96923.00;;;11.53;58.92
15674;BME280;7937;48.090;16.212;2023-04-25T11:45:41;96920.88;;;11.55;56.82
15674;BME280;7937;48.090;16.212;2023-04-25T11:48:44;96930.50;;;11.97;56.31
15674;BME280;7937;48.090;16.212;2023-04-25T11:51:48;96919.22;;;12.26;53.87
15674;BME280;7937;48.090;16.212;2023-04-25T11:54:50;96928.38;;;12.79;49.37
15674;BME280;7937;48.090;16.212;2023-04-25T11:57:53;96933.59;;;13.05;46.44
15674;BME280;7937;48.090;16.212;2023-04-25T12:00:56;96932.47;;;13.21;44.32
15674;BME280;7937;48.090;16.212;2023-04-25T12:07:16;96922.50;;;12.82;45.25
15674;BME280;7937;48.090;16.212;2023-04-25T12:10:21;96944.69;;;12.83;46.66
15674;BME280;7937;48.090;16.212;2023-04-25T12:13:25;96950.03;;;12.83;47.06
15674;BME280;7937;48.090;16.212;2023-04-25T12:16:29;96940.47;;;12.67;46.26
15674;BME280;7937;48.090;16.212;2023-04-25T12:19:37;96951.44;;;12.60;47.06
15674;BME280;7937;48.090;16.212;2023-04-25T12:22:44;96934.16;;;12.42;48.04
15674;BME280;7937;48.090;16.212;2023-04-25T12:25:48;96939.75;;;12.40;48.40
15674;BME280;7937;48.090;16.212;2023-04-25T12:28:51;96938.44;;;12.28;48.06
15674;BME280;7937;48.090;16.212;2023-04-25T12:31:55;96942.16;;;12.42;49.59
15674;BME280;7937;48.090;16.212;2023-04-25T12:34:58;96924.50;;;12.56;50.98
15674;BME280;7937;48.090;16.212;2023-04-25T12:38:00;96953.16;;;12.95;49.22
15674;BME280;7937;48.090;16.212;2023-04-25T12:41:03;96940.91;;;12.89;50.36
15674;BME280;7937;48.090;16.212;2023-04-25T12:44:05;96932.19;;;12.63;50.08
15674;BME280;7937;48.090;16.212;2023-04-25T12:47:08;96925.34;;;12.31;47.53
15674;BME280;7937;48.090;16.212;2023-04-25T12:50:10;96911.25;;;11.75;50.35
15674;BME280;7937;48.090;16.212;2023-04-25T12:53:13;96911.78;;;11.67;51.19
15674;BME280;7937;48.090;16.212;2023-04-25T12:56:15;96905.38;;;11.57;51.30
15674;BME280;7937;48.090;16.212;2023-04-25T12:59:18;96911.78;;;11.72;49.45
15674;BME280;7937;48.090;16.212;2023-04-25T13:02:22;96915.00;;;11.89;51.39
15674;BME280;7937;48.090;16.212;2023-04-25T13:05:25;96904.84;;;12.01;48.37
15674;BME280;7937;48.090;16.212;2023-04-25T13:08:28;96908.84;;;12.09;49.12
15674;BME280;7937;48.090;16.212;2023-04-25T13:11:30;96895.97;;;12.31;48.36
15674;BME280;7937;48.090;16.212;2023-04-25T13:14:33;96884.44;;;12.51;45.84
15674;BME280;7937;48.090;16.212;2023-04-25T13:17:35;96898.53;;;12.62;44.26
15674;BME280;7937;48.090;16.212;2023-04-25T13:20:38;96893.03;;;12.93;46.42
15674;BME280;7937;48.090;16.212;2023-04-25T13:23:41;96893.59;;;12.89;45.36
15674;BME280;7937;48.090;16.212;2023-04-25T13:26:49;96897.53;;;13.02;42.98
15674;BME280;7937;48.090;16.212;2023-04-25T13:29:51;96909.53;;;13.05;45.93
15674;BME280;7937;48.090;16.212;2023-04-25T13:32:54;96922.41;;;13.03;44.86
15674;BME280;7937;48.090;16.212;2023-04-25T13:36:00;96913.06;;;12.95;46.20
15674;BME280;7937;48.090;16.212;2023-04-25T13:39:04;96940.41;;;12.82;47.80
15674;BME280;7937;48.090;16.212;2023-04-25T13:42:07;96941.50;;;12.71;46.49
15674;BME280;7937;48.090;16.212;2023-04-25T13:45:10;96934.69;;;12.39;46.97
15674;BME280;7937;48.090;16.212;2023-04-25T13:48:12;96930.47;;;12.18;50.61
15674;BME280;7937;48.090;16.212;2023-04-25T13:51:15;96911.81;;;11.97;48.82
15674;BME280;7937;48.090;16.212;2023-04-25T13:54:19;96934.47;;;12.05;51.02
15674;BME280;7937;48.090;16.212;2023-04-25T13:57:23;96933.69;;;11.63;51.25
15674;BME280;7937;48.090;16.212;2023-04-25T14:00:25;96933.41;;;11.60;52.44
15674;BME280;7937;48.090;16.212;2023-04-25T14:03:28;96937.66;;;11.61;51.50
15674;BME280;7937;48.090;16.212;2023-04-25T14:06:32;96931.25;;;11.47;53.22
15674;BME280;7937;48.090;16.212;2023-04-25T14:09:35;96933.69;;;11.48;51.16
15674;BME280;7937;48.090;16.212;2023-04-25T14:12:37;96928.28;;;11.23;52.93
15674;BME280;7937;48.090;16.212;2023-04-25T14:15:39;96939.50;;;11.30;53.76
15674;BME280;7937;48.090;16.212;2023-04-25T14:18:41;96935.00;;;11.46;51.97
15674;BME280;7937;48.090;16.212;2023-04-25T14:21:44;96936.34;;;11.43;51.27
15674;BME280;7937;48.090;16.212;2023-04-25T14:24:47;96933.13;;;11.67;51.54
15674;BME280;7937;48.090;16.212;2023-04-25T14:27:49;96934.75;;;11.62;51.52
15674;BME280;7937;48.090;16.212;2023-04-25T14:30:52;96918.19;;;11.81;50.04
15674;BME280;7937;48.090;16.212;2023-04-25T14:33:55;96919.28;;;11.90;48.67
15674;BME280;7937;48.090;16.212;2023-04-25T14:37:00;96936.38;;;11.89;49.12
15674;BME280;7937;48.090;16.212;2023-04-25T14:40:03;96950.78;;;11.83;49.51
15674;BME280;7937;48.090;16.212;2023-04-25T14:43:07;96931.53;;;11.60;50.34
15674;BME280;7937;48.090;16.212;2023-04-25T14:46:10;96907.00;;;11.63;49.82
15674;BME280;7937;48.090;16.212;2023-04-25T14:49:13;96890.72;;;11.40;48.33
15674;BME280;7937;48.090;16.212;2023-04-25T14:52:15;96949.13;;;11.67;49.61
15674;BME280;7937;48.090;16.212;2023-04-25T14:55:18;96944.34;;;11.63;49.76
15674;BME280;7937;48.090;16.212;2023-04-25T14:58:22;96944.88;;;11.81;48.86
15674;BME280;7937;48.090;16.212;2023-04-25T15:01:25;96945.44;;;11.83;48.76
15674;BME280;7937;48.090;16.212;2023-04-25T15:04:28;96953.44;;;11.73;49.69
15674;BME280;7937;48.090;16.212;2023-04-25T15:07:31;96954.75;;;11.60;50.19
15674;BME280;7937;48.090;16.212;2023-04-25T15:10:34;96928.06;;;11.55;51.50
15674;BME280;7937;48.090;16.212;2023-04-25T15:13:37;96950.75;;;11.73;50.88
15674;BME280;7937;48.090;16.212;2023-04-25T15:16:39;96947.25;;;11.72;50.22
15674;BME280;7937;48.090;16.212;2023-04-25T15:19:41;96947.03;;;11.94;51.83
15674;BME280;7937;48.090;16.212;2023-04-25T15:22:44;96963.53;;;11.60;54.04
15674;BME280;7937;48.090;16.212;2023-04-25T15:25:47;96982.78;;;11.73;55.52
15674;BME280;7937;48.090;16.212;2023-04-25T15:28:50;96987.25;;;11.47;55.08
15674;BME280;7937;48.090;16.212;2023-04-25T15:31:52;96985.34;;;11.27;55.96
15674;BME280;7937;48.090;16.212;2023-04-25T15:34:55;96998.97;;;11.25;55.22
15674;BME280;7937;48.090;16.212;2023-04-25T15:37:57;96996.56;;;11.29;54.40
15674;BME280;7937;48.090;16.212;2023-04-25T15:41:01;96994.19;;;11.37;52.63
15674;BME280;7937;48.090;16.212;2023-04-25T15:44:06;97003.16;;;11.06;51.94
15674;BME280;7937;48.090;16.212;2023-04-25T15:47:09;97000.66;;;10.79;53.13
15674;BME280;7937;48.090;16.212;2023-04-25T15:50:13;96997.59;;;10.55;54.77
15674;BME280;7937;48.090;16.212;2023-04-25T15:53:18;97004.78;;;10.49;55.70
15674;BME280;7937;48.090;16.212;2023-04-25T15:56:21;96997.06;;;10.58;53.95
15674;BME280;7937;48.090;16.212;2023-04-25T15:59:25;96997.31;;;10.51;54.90
15674;BME280;7937;48.090;16.212;2023-04-25T16:02:29;97008.19;;;10.45;55.02
15674;BME280;7937;48.090;16.212;2023-04-25T16:05:32;96997.31;;;10.51;55.01
15674;BME280;7937;48.090;16.212;2023-04-25T16:08:35;96998.88;;;10.47;54.88
15674;BME280;7937;48.090;16.212;2023-04-25T16:11:38;97006.88;;;10.47;54.62
15674;BME280;7937;48.090;16.212;2023-04-25T16:14:41;97010.38;;;10.58;54.46
15674;BME280;7937;48.090;16.212;2023-04-25T16:17:43;97014.59;;;10.49;54.38
15674;BME280;7937;48.090;16.212;2023-04-25T16:20:46;97019.94;;;10.54;53.70
15674;BME280;7937;48.090;16.212;2023-04-25T16:23:49;97028.94;;;10.43;55.47
15674;BME280;7937;48.090;16.212;2023-04-25T16:26:51;97023.09;;;10.41;56.16
15674;BME280;7937;48.090;16.212;2023-04-25T16:29:54;97029.75;;;10.11;57.56
15674;BME280;7937;48.090;16.212;2023-04-25T16:32:57;97033.28;;;9.90;58.75